Meteorological Aerodrome Report (METAR)

METAR

Data at: 0920 UTC 23 Sep 2021

METAR for:NVSC (Sola/Vanua Lava Arpt, TO, NV)
Text:NVSC 230900Z 11005KT 9999 -SHRA SCT020 BKN040 25/24 Q1012
Temperature: 25.0°C ( 77°F)
Dewpoint: 24.0°C ( 75°F) [RH = 94%]
Pressure (altimeter):29.88 inches Hg (1012.0 mb)
Winds:from the ESE (110 degrees) at 6 MPH (5 knots; 2.6 m/s)
Visibility:6 or more sm (10+ km)
Ceiling:4000 feet AGL
Clouds: scattered clouds at 2000 feet AGL, broken clouds at 4000 feet AGL
Weather:-SHRA (light rain showers)

METAR

Data at: 0920 UTC 23 Sep 2021

METAR for:NVSG (Longana Arpt, PA, NV)
Text:NVSG 230900Z AUTO 00000KT //// // NCD 24/23 Q1014
Temperature: 24.0°C ( 75°F)
Dewpoint: 23.0°C ( 73°F) [RH = 94%]
Pressure (altimeter):29.94 inches Hg (1014.0 mb)
Winds:calm
Ceiling:at least 12,000 feet AGL
Clouds:sky clear below 12,000 feet AGL

METAR

Data at: 0920 UTC 23 Sep 2021

METAR for:NVSS (Santo/Pekoa Intl, SA, NV)
Text:NVSS 230900Z 32002KT 9999 SCT020 BKN040 24/23 Q1013
Temperature: 24.0°C ( 75°F)
Dewpoint: 23.0°C ( 73°F) [RH = 94%]
Pressure (altimeter):29.91 inches Hg (1013.0 mb)
Winds:from the NW (320 degrees) at 2 MPH (2 knots; 1.0 m/s)
Visibility:6 or more sm (10+ km)
Ceiling:4000 feet AGL
Clouds: scattered clouds at 2000 feet AGL, broken clouds at 4000 feet AGL

METAR

Data at: 0920 UTC 23 Sep 2021

METAR for:NVSL (Malekula Isl/Lamap, MA, NV)
Text:No data found

METAR

Data at: 0920 UTC 23 Sep 2021

METAR for:NVSP (Norsup Arpt, MA, NV)
Text:No data found

METAR

Data at: 0920 UTC 23 Sep 2021

METAR for:NVVV (Efate/Bauerfield Int, SE, NV)
Text:NVVV 230916Z 18009KT 9999 -SHRA FEW008 BKN015 OVC090 23/22 Q1015 INTER 0916/1116 9000 -SHRA FEW007 BKN013 OVC085
Temperature: 23.0°C ( 73°F)
Dewpoint: 22.0°C ( 72°F) [RH = 94%]
Pressure (altimeter):29.97 inches Hg (1015.0 mb)
Winds:from the S (180 degrees) at 10 MPH (9 knots; 4.6 m/s)
Visibility:6 or more sm (10+ km)
Ceiling:1500 feet AGL
Clouds: few clouds at 800 feet AGL, broken clouds at 1500 feet AGL, overcast cloud deck at 9000 feet AGL
Weather:-SHRA (light rain showers)

METAR

Data at: 0920 UTC 23 Sep 2021

METAR for:NVVW (Tanna Arpt, TA, NV)
Text:NVVW 230900Z AUTO 15009KT //// // NCD 21/19 Q1016
Temperature: 21.0°C ( 70°F)
Dewpoint: 19.0°C ( 66°F) [RH = 88%]
Pressure (altimeter):30.00 inches Hg (1016.0 mb)
Winds:from the SSE (150 degrees) at 10 MPH (9 knots; 4.6 m/s)
Ceiling:at least 12,000 feet AGL
Clouds:sky clear below 12,000 feet AGL

METAR

Data at: 0920 UTC 23 Sep 2021

METAR for:NVVA (Aneityum/Mystery Isl, TA, NV)
Text:NVVA 230900Z 18009KT 9999 FEW015 SCT020 OVC040 22/18 Q1017
Temperature: 22.0°C ( 72°F)
Dewpoint: 18.0°C ( 64°F) [RH = 78%]
Pressure (altimeter):30.03 inches Hg (1017.0 mb)
Winds:from the S (180 degrees) at 10 MPH (9 knots; 4.6 m/s)
Visibility:6 or more sm (10+ km)
Ceiling:4000 feet AGL
Clouds: few clouds at 1500 feet AGL, scattered clouds at 2000 feet AGL, overcast cloud deck at 4000 feet AGL

METAR

Data at: 0920 UTC 23 Sep 2021

NVVV 230916Z 18009KT 9999 -SHRA FEW008 BKN015 OVC090 23/22 Q1015 INTER 0916/1116 9000 -SHRA FEW007 BKN013 OVC085
NVSC 230900Z 11005KT 9999 -SHRA SCT020 BKN040 25/24 Q1012
NVSG 230900Z AUTO 00000KT //// // NCD 24/23 Q1014
NVSS 230900Z 32002KT 9999 SCT020 BKN040 24/23 Q1013
No Data available for NVSL
No Data available for NVSP
NVVW 230900Z AUTO 15009KT //// // NCD 21/19 Q1016
NVVA 230900Z 18009KT 9999 FEW015 SCT020 OVC040 22/18 Q1017